CSTKK LPPD-LPPI
Flight info
| Callsign | CSTKK |
|---|---|
| Flight time | 1h 20m |
| Altitude | 6000 |
| Route | TIMTO DCT GOXAS DCT ORPIC |
| Aircraft | C172/L-SFG/C |
Departure
| Time | 2026-04-26 13:02 |
|---|---|
| Airport | João Paulo II Airport (LPPD) |
Arrival
| Time | 2026-04-26 14:22 |
|---|---|
| Airport | Pico Airport (LPPI) |
| Time | Latitude | Longitude | Altitude | Speed | Heading |
|---|---|---|---|---|---|
| 2026-04-26 12:42 | 37.74143 | -25.70111 | 263 ft | 0 kts | 201° |
| 2026-04-26 12:58 | 37.74144 | -25.70063 | 263 ft | 7 kts | 13° |
| 2026-04-26 12:58 | 37.74189 | -25.70076 | 263 ft | 7 kts | 316° |
| 2026-04-26 12:58 | 37.74210 | -25.70133 | 263 ft | 7 kts | 291° |
| 2026-04-26 12:58 | 37.74229 | -25.70190 | 263 ft | 6 kts | 290° |
| 2026-04-26 12:59 | 37.74243 | -25.70238 | 263 ft | 6 kts | 291° |
| 2026-04-26 12:59 | 37.74270 | -25.70249 | 263 ft | 5 kts | 19° |
| 2026-04-26 12:59 | 37.74301 | -25.70236 | 263 ft | 5 kts | 19° |
| 2026-04-26 12:59 | 37.74333 | -25.70230 | 263 ft | 4 kts | 359° |
| 2026-04-26 13:00 | 37.74364 | -25.70235 | 263 ft | 5 kts | 347° |
| 2026-04-26 13:00 | 37.74392 | -25.70270 | 263 ft | 6 kts | 253° |
| 2026-04-26 13:00 | 37.74360 | -25.70268 | 263 ft | 5 kts | 120° |
| 2026-04-26 13:00 | 37.74350 | -25.70237 | 263 ft | 3 kts | 113° |
| 2026-04-26 13:01 | 37.74348 | -25.70231 | 263 ft | 0 kts | 114° |
| 2026-04-26 13:01 | 37.74340 | -25.70208 | 263 ft | 16 kts | 112° |
| 2026-04-26 13:01 | 37.74239 | -25.69895 | 268 ft | 57 kts | 111° |
| 2026-04-26 13:01 | 37.74085 | -25.69365 | 408 ft | 65 kts | 110° |
| 2026-04-26 13:02 | 37.73933 | -25.68802 | 652 ft | 69 kts | 112° |
| 2026-04-26 13:02 | 37.73747 | -25.68215 | 941 ft | 75 kts | 114° |
| 2026-04-26 13:02 | 37.73565 | -25.67572 | 1167 ft | 83 kts | 111° |
| 2026-04-26 13:02 | 37.73322 | -25.66805 | 1139 ft | 100 kts | 115° |
| 2026-04-26 13:03 | 37.73059 | -25.65947 | 1142 ft | 108 kts | 113° |
| 2026-04-26 13:03 | 37.72799 | -25.65086 | 1279 ft | 101 kts | 114° |
| 2026-04-26 13:03 | 37.72550 | -25.64260 | 1432 ft | 100 kts | 113° |
| 2026-04-26 13:03 | 37.72304 | -25.63448 | 1576 ft | 99 kts | 114° |
| 2026-04-26 13:04 | 37.72062 | -25.62652 | 1754 ft | 96 kts | 114° |
| 2026-04-26 13:04 | 37.71823 | -25.61863 | 1925 ft | 95 kts | 114° |
| 2026-04-26 13:04 | 37.71592 | -25.61099 | 2097 ft | 90 kts | 115° |
| 2026-04-26 13:04 | 37.71372 | -25.60376 | 2268 ft | 86 kts | 114° |
| 2026-04-26 13:05 | 37.71164 | -25.59691 | 2431 ft | 82 kts | 114° |
| 2026-04-26 13:05 | 37.70943 | -25.59071 | 2592 ft | 75 kts | 129° |
| 2026-04-26 13:05 | 37.70547 | -25.58686 | 2744 ft | 72 kts | 154° |
| 2026-04-26 13:05 | 37.70055 | -25.58596 | 2888 ft | 74 kts | 181° |
| 2026-04-26 13:06 | 37.69568 | -25.58844 | 3039 ft | 80 kts | 210° |
| 2026-04-26 13:06 | 37.69239 | -25.59437 | 3184 ft | 87 kts | 243° |
| 2026-04-26 13:06 | 37.69243 | -25.60207 | 3332 ft | 94 kts | 281° |
| 2026-04-26 13:06 | 37.69439 | -25.60979 | 3484 ft | 91 kts | 279° |
| 2026-04-26 13:07 | 37.69620 | -25.61735 | 3630 ft | 88 kts | 280° |
| 2026-04-26 13:07 | 37.69796 | -25.62464 | 3777 ft | 86 kts | 279° |
| 2026-04-26 13:07 | 37.69972 | -25.63192 | 3924 ft | 87 kts | 280° |
| 2026-04-26 13:07 | 37.70151 | -25.63931 | 4073 ft | 88 kts | 279° |
| 2026-04-26 13:08 | 37.70324 | -25.64644 | 4216 ft | 84 kts | 278° |
| 2026-04-26 13:08 | 37.70490 | -25.65325 | 4363 ft | 79 kts | 278° |
| 2026-04-26 13:08 | 37.70646 | -25.65975 | 4502 ft | 76 kts | 277° |
| 2026-04-26 13:08 | 37.70887 | -25.66575 | 4610 ft | 81 kts | 309° |
| 2026-04-26 13:09 | 37.71398 | -25.66980 | 4669 ft | 92 kts | 330° |
| 2026-04-26 13:09 | 37.71992 | -25.67380 | 4738 ft | 101 kts | 329° |
| 2026-04-26 13:09 | 37.72634 | -25.67811 | 4807 ft | 106 kts | 329° |
| 2026-04-26 13:09 | 37.73311 | -25.68264 | 4879 ft | 113 kts | 329° |
| 2026-04-26 13:10 | 37.74022 | -25.68739 | 4989 ft | 117 kts | 329° |
| 2026-04-26 13:10 | 37.74745 | -25.69221 | 5084 ft | 118 kts | 329° |
| 2026-04-26 13:10 | 37.75465 | -25.69703 | 5196 ft | 120 kts | 329° |
| 2026-04-26 13:10 | 37.76214 | -25.70203 | 5305 ft | 123 kts | 330° |
| 2026-04-26 13:11 | 37.76972 | -25.70708 | 5407 ft | 124 kts | 329° |
| 2026-04-26 13:11 | 37.77713 | -25.71204 | 5555 ft | 118 kts | 329° |
| 2026-04-26 13:11 | 37.78426 | -25.71682 | 5699 ft | 114 kts | 329° |
| 2026-04-26 13:11 | 37.79112 | -25.72141 | 5869 ft | 109 kts | 330° |
| 2026-04-26 13:12 | 37.79776 | -25.72587 | 5993 ft | 110 kts | 329° |
| 2026-04-26 13:12 | 37.80492 | -25.73067 | 6004 ft | 122 kts | 330° |
| 2026-04-26 13:12 | 37.81266 | -25.73584 | 6007 ft | 129 kts | 330° |
| 2026-04-26 13:12 | 37.82074 | -25.74124 | 6006 ft | 133 kts | 330° |
| 2026-04-26 13:13 | 37.82889 | -25.74669 | 5998 ft | 132 kts | 330° |
| 2026-04-26 13:13 | 37.83699 | -25.75213 | 6009 ft | 132 kts | 330° |
| 2026-04-26 13:13 | 37.84492 | -25.75792 | 6008 ft | 133 kts | 317° |
| 2026-04-26 13:13 | 37.84965 | -25.76748 | 5999 ft | 127 kts | 288° |
| 2026-04-26 13:14 | 37.85310 | -25.77783 | 6007 ft | 129 kts | 289° |
| 2026-04-26 13:14 | 37.85672 | -25.78819 | 6005 ft | 128 kts | 290° |
| 2026-04-26 13:14 | 37.86036 | -25.79852 | 6012 ft | 128 kts | 290° |
| 2026-04-26 13:14 | 37.86401 | -25.80882 | 6009 ft | 129 kts | 290° |
| 2026-04-26 13:15 | 37.86770 | -25.81923 | 6007 ft | 129 kts | 290° |
| 2026-04-26 13:15 | 37.87138 | -25.82959 | 6012 ft | 129 kts | 290° |
| 2026-04-26 13:15 | 37.87510 | -25.84008 | 6007 ft | 131 kts | 290° |
| 2026-04-26 13:15 | 37.87756 | -25.84705 | 6009 ft | 131 kts | 290° |
| 2026-04-26 13:16 | 37.88245 | -25.86109 | 6006 ft | 129 kts | 290° |
| 2026-04-26 13:16 | 37.88598 | -25.87136 | 6006 ft | 128 kts | 289° |
| 2026-04-26 13:16 | 37.88949 | -25.88173 | 6006 ft | 128 kts | 289° |
| 2026-04-26 13:16 | 37.89293 | -25.89204 | 6002 ft | 127 kts | 288° |
| 2026-04-26 13:17 | 37.89966 | -25.91267 | 6002 ft | 127 kts | 288° |
| 2026-04-26 13:17 | 37.90295 | -25.92303 | 6006 ft | 127 kts | 287° |
| 2026-04-26 13:18 | 37.90940 | -25.94388 | 6003 ft | 127 kts | 286° |
| 2026-04-26 13:18 | 37.91295 | -25.95409 | 6000 ft | 128 kts | 301° |
| 2026-04-26 13:18 | 37.92195 | -25.97308 | 6000 ft | 126 kts | 291° |
| 2026-04-26 13:19 | 37.92565 | -25.98314 | 5998 ft | 126 kts | 290° |
| 2026-04-26 13:19 | 37.92924 | -25.99314 | 5996 ft | 126 kts | 290° |
| 2026-04-26 13:19 | 37.93291 | -26.00328 | 5999 ft | 127 kts | 290° |
| 2026-04-26 13:19 | 37.93671 | -26.01341 | 5999 ft | 127 kts | 291° |
| 2026-04-26 13:20 | 37.94052 | -26.02354 | 6003 ft | 127 kts | 291° |
| 2026-04-26 13:20 | 37.94433 | -26.03367 | 6006 ft | 127 kts | 290° |
| 2026-04-26 13:20 | 37.94812 | -26.04375 | 6005 ft | 127 kts | 290° |
| 2026-04-26 13:20 | 37.95189 | -26.05382 | 6000 ft | 127 kts | 291° |
| 2026-04-26 13:21 | 37.95563 | -26.06379 | 6000 ft | 127 kts | 291° |
| 2026-04-26 13:21 | 37.95819 | -26.07061 | 6004 ft | 127 kts | 291° |
| 2026-04-26 13:21 | 37.96320 | -26.08398 | 6002 ft | 127 kts | 291° |
| 2026-04-26 13:21 | 37.96699 | -26.09408 | 5999 ft | 127 kts | 291° |
| 2026-04-26 13:22 | 37.97078 | -26.10419 | 6003 ft | 127 kts | 291° |
| 2026-04-26 13:22 | 37.97457 | -26.11432 | 6001 ft | 127 kts | 291° |
| 2026-04-26 13:22 | 37.97835 | -26.12440 | 6004 ft | 126 kts | 291° |
| 2026-04-26 13:22 | 37.98206 | -26.13433 | 6003 ft | 126 kts | 291° |
| 2026-04-26 13:23 | 37.98582 | -26.14438 | 6002 ft | 126 kts | 291° |
| 2026-04-26 13:23 | 37.98958 | -26.15442 | 6000 ft | 126 kts | 291° |
| 2026-04-26 13:23 | 37.99333 | -26.16447 | 6007 ft | 126 kts | 290° |
| 2026-04-26 13:23 | 37.99710 | -26.17455 | 6004 ft | 126 kts | 290° |
| 2026-04-26 13:24 | 38.00082 | -26.18451 | 6005 ft | 126 kts | 290° |
| 2026-04-26 13:24 | 38.00458 | -26.19456 | 6006 ft | 126 kts | 290° |
| 2026-04-26 13:24 | 38.00833 | -26.20462 | 5998 ft | 126 kts | 290° |
| 2026-04-26 13:24 | 38.01207 | -26.21462 | 6000 ft | 125 kts | 290° |
| 2026-04-26 13:25 | 38.01580 | -26.22461 | 6005 ft | 125 kts | 290° |
| 2026-04-26 13:25 | 38.01951 | -26.23458 | 6007 ft | 125 kts | 290° |
| 2026-04-26 13:25 | 38.02325 | -26.24459 | 6006 ft | 126 kts | 290° |
| 2026-04-26 13:25 | 38.02694 | -26.25451 | 6003 ft | 126 kts | 290° |
| 2026-04-26 13:26 | 38.03070 | -26.26459 | 6005 ft | 126 kts | 290° |
| 2026-04-26 13:26 | 38.03444 | -26.27463 | 6002 ft | 126 kts | 290° |
| 2026-04-26 13:26 | 38.03692 | -26.28129 | 6002 ft | 126 kts | 290° |
| 2026-04-26 13:26 | 38.04186 | -26.29456 | 6002 ft | 125 kts | 290° |
| 2026-04-26 13:27 | 38.04558 | -26.30453 | 5997 ft | 125 kts | 290° |
| 2026-04-26 13:27 | 38.04929 | -26.31450 | 6002 ft | 125 kts | 290° |
| 2026-04-26 13:27 | 38.05175 | -26.32114 | 6004 ft | 125 kts | 290° |
| 2026-04-26 13:27 | 38.05675 | -26.33458 | 6001 ft | 126 kts | 290° |
| 2026-04-26 13:28 | 38.05922 | -26.34123 | 6005 ft | 126 kts | 290° |
| 2026-04-26 13:28 | 38.06296 | -26.35127 | 6003 ft | 126 kts | 290° |
| 2026-04-26 13:28 | 38.06669 | -26.36131 | 6000 ft | 126 kts | 290° |
| 2026-04-26 13:28 | 38.07043 | -26.37141 | 6004 ft | 126 kts | 290° |
| 2026-04-26 13:29 | 38.07417 | -26.38148 | 6006 ft | 126 kts | 290° |
| 2026-04-26 13:29 | 38.07790 | -26.39150 | 6004 ft | 125 kts | 290° |
| 2026-04-26 13:29 | 38.08156 | -26.40138 | 6003 ft | 125 kts | 290° |
| 2026-04-26 13:29 | 38.08527 | -26.41137 | 6002 ft | 125 kts | 290° |
| 2026-04-26 13:30 | 38.08896 | -26.42134 | 5995 ft | 125 kts | 290° |
| 2026-04-26 13:30 | 38.09265 | -26.43127 | 6004 ft | 124 kts | 290° |
| 2026-04-26 13:30 | 38.09634 | -26.44127 | 6002 ft | 125 kts | 289° |
| 2026-04-26 13:30 | 38.10006 | -26.45129 | 6002 ft | 126 kts | 290° |
| 2026-04-26 13:31 | 38.10378 | -26.46135 | 6005 ft | 126 kts | 290° |
| 2026-04-26 13:31 | 38.10750 | -26.47140 | 6001 ft | 126 kts | 290° |
| 2026-04-26 13:31 | 38.11125 | -26.48152 | 6005 ft | 127 kts | 290° |
| 2026-04-26 13:31 | 38.11500 | -26.49165 | 6004 ft | 126 kts | 290° |
| 2026-04-26 13:32 | 38.11868 | -26.50162 | 6004 ft | 126 kts | 289° |
| 2026-04-26 13:32 | 38.12242 | -26.51173 | 6006 ft | 126 kts | 289° |
| 2026-04-26 13:32 | 38.12616 | -26.52186 | 6004 ft | 126 kts | 289° |
| 2026-04-26 13:32 | 38.12989 | -26.53196 | 6006 ft | 126 kts | 290° |
| 2026-04-26 13:33 | 38.13362 | -26.54204 | 6006 ft | 126 kts | 290° |
| 2026-04-26 13:33 | 38.13734 | -26.55212 | 6007 ft | 126 kts | 290° |
| 2026-04-26 13:33 | 38.14100 | -26.56205 | 6007 ft | 126 kts | 289° |
| 2026-04-26 13:33 | 38.14472 | -26.57213 | 6006 ft | 126 kts | 289° |
| 2026-04-26 13:34 | 38.14844 | -26.58221 | 6003 ft | 126 kts | 289° |
| 2026-04-26 13:34 | 38.15216 | -26.59230 | 6002 ft | 126 kts | 289° |
| 2026-04-26 13:34 | 38.15589 | -26.60243 | 6002 ft | 127 kts | 289° |
| 2026-04-26 13:34 | 38.15837 | -26.60915 | 6002 ft | 127 kts | 289° |
| 2026-04-26 13:35 | 38.16337 | -26.62274 | 6008 ft | 127 kts | 289° |
| 2026-04-26 13:35 | 38.16709 | -26.63284 | 6008 ft | 128 kts | 289° |
| 2026-04-26 13:35 | 38.17087 | -26.64311 | 6007 ft | 128 kts | 289° |
| 2026-04-26 13:35 | 38.17464 | -26.65335 | 6000 ft | 128 kts | 289° |
| 2026-04-26 13:36 | 38.17839 | -26.66354 | 6007 ft | 127 kts | 289° |
| 2026-04-26 13:36 | 38.18213 | -26.67371 | 6004 ft | 127 kts | 289° |
| 2026-04-26 13:36 | 38.18585 | -26.68385 | 6006 ft | 126 kts | 289° |
| 2026-04-26 13:36 | 38.18957 | -26.69397 | 6009 ft | 126 kts | 289° |
| 2026-04-26 13:37 | 38.19328 | -26.70407 | 6002 ft | 126 kts | 289° |
| 2026-04-26 13:37 | 38.19699 | -26.71416 | 6002 ft | 126 kts | 289° |
| 2026-04-26 13:37 | 38.20065 | -26.72414 | 6007 ft | 126 kts | 289° |
| 2026-04-26 13:37 | 38.20438 | -26.73430 | 5999 ft | 127 kts | 289° |
| 2026-04-26 13:38 | 38.20811 | -26.74446 | 6002 ft | 126 kts | 289° |
| 2026-04-26 13:38 | 38.21182 | -26.75459 | 6002 ft | 127 kts | 289° |
| 2026-04-26 13:38 | 38.21555 | -26.76476 | 6005 ft | 127 kts | 289° |
| 2026-04-26 13:38 | 38.21929 | -26.77498 | 6002 ft | 127 kts | 289° |
| 2026-04-26 13:39 | 38.22303 | -26.78517 | 6000 ft | 127 kts | 289° |
| 2026-04-26 13:39 | 38.22670 | -26.79518 | 6002 ft | 126 kts | 289° |
| 2026-04-26 13:39 | 38.23040 | -26.80531 | 6001 ft | 126 kts | 288° |
| 2026-04-26 13:39 | 38.23411 | -26.81544 | 5997 ft | 126 kts | 289° |
| 2026-04-26 13:40 | 38.23782 | -26.82560 | 5997 ft | 126 kts | 289° |
| 2026-04-26 13:40 | 38.24153 | -26.83573 | 5995 ft | 126 kts | 289° |
| 2026-04-26 13:40 | 38.24522 | -26.84583 | 5998 ft | 126 kts | 289° |
| 2026-04-26 13:40 | 38.24892 | -26.85596 | 5999 ft | 126 kts | 289° |
| 2026-04-26 13:41 | 38.25264 | -26.86613 | 5999 ft | 127 kts | 289° |
| 2026-04-26 13:41 | 38.25631 | -26.87617 | 5996 ft | 125 kts | 289° |
| 2026-04-26 13:41 | 38.25995 | -26.88614 | 5996 ft | 123 kts | 288° |
| 2026-04-26 13:41 | 38.26354 | -26.89596 | 5994 ft | 121 kts | 288° |
| 2026-04-26 13:42 | 38.26708 | -26.90568 | 5989 ft | 120 kts | 288° |
| 2026-04-26 13:42 | 38.27060 | -26.91531 | 5992 ft | 120 kts | 288° |
| 2026-04-26 13:42 | 38.27411 | -26.92496 | 5991 ft | 120 kts | 288° |
| 2026-04-26 13:42 | 38.27763 | -26.93462 | 5988 ft | 120 kts | 288° |
| 2026-04-26 13:43 | 38.28111 | -26.94418 | 5992 ft | 120 kts | 288° |
| 2026-04-26 13:43 | 38.28464 | -26.95385 | 5992 ft | 120 kts | 288° |
| 2026-04-26 13:43 | 38.28817 | -26.96354 | 5991 ft | 120 kts | 288° |
| 2026-04-26 13:43 | 38.29170 | -26.97324 | 5991 ft | 121 kts | 288° |
| 2026-04-26 13:44 | 38.29522 | -26.98293 | 5990 ft | 120 kts | 288° |
| 2026-04-26 13:44 | 38.29873 | -26.99256 | 5989 ft | 120 kts | 288° |
| 2026-04-26 13:44 | 38.30222 | -27.00215 | 5989 ft | 119 kts | 288° |
| 2026-04-26 13:44 | 38.30570 | -27.01174 | 5989 ft | 119 kts | 288° |
| 2026-04-26 13:45 | 38.30917 | -27.02130 | 5988 ft | 119 kts | 288° |
| 2026-04-26 13:45 | 38.31259 | -27.03070 | 5990 ft | 119 kts | 288° |
| 2026-04-26 13:45 | 38.31608 | -27.04031 | 5991 ft | 119 kts | 288° |
| 2026-04-26 13:45 | 38.31957 | -27.04992 | 5990 ft | 120 kts | 288° |
| 2026-04-26 13:46 | 38.32307 | -27.05956 | 5988 ft | 120 kts | 288° |
| 2026-04-26 13:46 | 38.32658 | -27.06923 | 5990 ft | 120 kts | 288° |
| 2026-04-26 13:46 | 38.33004 | -27.07878 | 5987 ft | 120 kts | 288° |
| 2026-04-26 13:46 | 38.33354 | -27.08841 | 5986 ft | 120 kts | 288° |
| 2026-04-26 13:47 | 38.33703 | -27.09804 | 5991 ft | 119 kts | 288° |
| 2026-04-26 13:47 | 38.34050 | -27.10763 | 5992 ft | 119 kts | 288° |
| 2026-04-26 13:47 | 38.34397 | -27.11719 | 5988 ft | 119 kts | 288° |
| 2026-04-26 13:47 | 38.34742 | -27.12674 | 5987 ft | 118 kts | 287° |
| 2026-04-26 13:48 | 38.35087 | -27.13627 | 5990 ft | 118 kts | 287° |
| 2026-04-26 13:48 | 38.35433 | -27.14581 | 5990 ft | 119 kts | 287° |
| 2026-04-26 13:48 | 38.35776 | -27.15530 | 5988 ft | 119 kts | 287° |
| 2026-04-26 13:48 | 38.36125 | -27.16494 | 5989 ft | 120 kts | 287° |
| 2026-04-26 13:49 | 38.36472 | -27.17456 | 5989 ft | 120 kts | 288° |
| 2026-04-26 13:49 | 38.36822 | -27.18423 | 5992 ft | 120 kts | 288° |
| 2026-04-26 13:49 | 38.37172 | -27.19393 | 5994 ft | 120 kts | 287° |
| 2026-04-26 13:49 | 38.37522 | -27.20360 | 5987 ft | 120 kts | 287° |
| 2026-04-26 13:50 | 38.37871 | -27.21326 | 5993 ft | 120 kts | 287° |
| 2026-04-26 13:50 | 38.38221 | -27.22296 | 5993 ft | 121 kts | 288° |
| 2026-04-26 13:50 | 38.38569 | -27.23261 | 5994 ft | 121 kts | 288° |
| 2026-04-26 13:50 | 38.38922 | -27.24238 | 5992 ft | 121 kts | 288° |
| 2026-04-26 13:51 | 38.39271 | -27.25207 | 5988 ft | 120 kts | 288° |
| 2026-04-26 13:51 | 38.39619 | -27.26172 | 5988 ft | 120 kts | 288° |
| 2026-04-26 13:51 | 38.39966 | -27.27136 | 5991 ft | 120 kts | 288° |
| 2026-04-26 13:51 | 38.40315 | -27.28103 | 5987 ft | 120 kts | 288° |
| 2026-04-26 13:52 | 38.40663 | -27.29068 | 5988 ft | 120 kts | 288° |
| 2026-04-26 13:52 | 38.41010 | -27.30033 | 5990 ft | 120 kts | 288° |
| 2026-04-26 13:52 | 38.41358 | -27.30998 | 5992 ft | 120 kts | 288° |
| 2026-04-26 13:52 | 38.41702 | -27.31954 | 5988 ft | 120 kts | 287° |
| 2026-04-26 13:53 | 38.42050 | -27.32922 | 5991 ft | 120 kts | 287° |
| 2026-04-26 13:53 | 38.42398 | -27.33892 | 5992 ft | 120 kts | 287° |
| 2026-04-26 13:53 | 38.42748 | -27.34864 | 5993 ft | 121 kts | 287° |
| 2026-04-26 13:53 | 38.43098 | -27.35838 | 5991 ft | 121 kts | 287° |
| 2026-04-26 13:54 | 38.43448 | -27.36812 | 5991 ft | 121 kts | 287° |
| 2026-04-26 13:54 | 38.43798 | -27.37788 | 5990 ft | 121 kts | 287° |
| 2026-04-26 13:54 | 38.44149 | -27.38764 | 5989 ft | 121 kts | 287° |
| 2026-04-26 13:55 | 38.44849 | -27.40714 | 5987 ft | 121 kts | 287° |
| 2026-04-26 13:55 | 38.45080 | -27.41359 | 5990 ft | 121 kts | 287° |
| 2026-04-26 13:55 | 38.45894 | -27.43630 | 5984 ft | 121 kts | 287° |
| 2026-04-26 13:56 | 38.46244 | -27.44607 | 5988 ft | 121 kts | 287° |
| 2026-04-26 13:56 | 38.46593 | -27.45581 | 5987 ft | 120 kts | 287° |
| 2026-04-26 13:56 | 38.46942 | -27.46555 | 5982 ft | 120 kts | 287° |
| 2026-04-26 13:56 | 38.47289 | -27.47525 | 5986 ft | 120 kts | 287° |
| 2026-04-26 13:57 | 38.47636 | -27.48493 | 5985 ft | 120 kts | 287° |
| 2026-04-26 13:57 | 38.47984 | -27.49467 | 5984 ft | 121 kts | 287° |
| 2026-04-26 13:57 | 38.48340 | -27.50468 | 5941 ft | 127 kts | 287° |
| 2026-04-26 13:57 | 38.48710 | -27.51501 | 5872 ft | 132 kts | 288° |
| 2026-04-26 13:58 | 38.49094 | -27.52574 | 5795 ft | 134 kts | 288° |
| 2026-04-26 13:58 | 38.49482 | -27.53658 | 5722 ft | 135 kts | 288° |
| 2026-04-26 13:58 | 38.49872 | -27.54748 | 5655 ft | 135 kts | 287° |
| 2026-04-26 13:58 | 38.50261 | -27.55837 | 5574 ft | 134 kts | 287° |
| 2026-04-26 13:59 | 38.50650 | -27.56925 | 5501 ft | 134 kts | 287° |
| 2026-04-26 13:59 | 38.51036 | -27.58008 | 5424 ft | 134 kts | 287° |
| 2026-04-26 13:59 | 38.51422 | -27.59092 | 5351 ft | 134 kts | 287° |
| 2026-04-26 14:00 | 38.52573 | -27.62322 | 5128 ft | 133 kts | 287° |
| 2026-04-26 14:00 | 38.52959 | -27.63405 | 5057 ft | 134 kts | 287° |
| 2026-04-26 14:00 | 38.53215 | -27.64125 | 5000 ft | 134 kts | 287° |
| 2026-04-26 14:01 | 38.53718 | -27.65536 | 4975 ft | 129 kts | 286° |
| 2026-04-26 14:01 | 38.54085 | -27.66569 | 4977 ft | 126 kts | 286° |
| 2026-04-26 14:01 | 38.54446 | -27.67587 | 4972 ft | 125 kts | 286° |
| 2026-04-26 14:01 | 38.54805 | -27.68599 | 4975 ft | 125 kts | 286° |
| 2026-04-26 14:02 | 38.55164 | -27.69609 | 4968 ft | 125 kts | 285° |
| 2026-04-26 14:02 | 38.55522 | -27.70617 | 4971 ft | 125 kts | 285° |
| 2026-04-26 14:02 | 38.55880 | -27.71625 | 4971 ft | 125 kts | 285° |
| 2026-04-26 14:02 | 38.56234 | -27.72626 | 4974 ft | 125 kts | 285° |
| 2026-04-26 14:03 | 38.56596 | -27.73646 | 4976 ft | 127 kts | 285° |
| 2026-04-26 14:03 | 38.56962 | -27.74678 | 4975 ft | 128 kts | 285° |
| 2026-04-26 14:03 | 38.57333 | -27.75724 | 4982 ft | 129 kts | 286° |
| 2026-04-26 14:03 | 38.57702 | -27.76763 | 4973 ft | 127 kts | 285° |
| 2026-04-26 14:04 | 38.58067 | -27.77792 | 4975 ft | 128 kts | 285° |
| 2026-04-26 14:04 | 38.58434 | -27.78828 | 4973 ft | 127 kts | 285° |
| 2026-04-26 14:04 | 38.58794 | -27.79844 | 4972 ft | 125 kts | 285° |
| 2026-04-26 14:04 | 38.59145 | -27.80835 | 4970 ft | 123 kts | 285° |
| 2026-04-26 14:05 | 38.59498 | -27.81835 | 4963 ft | 124 kts | 285° |
| 2026-04-26 14:05 | 38.59853 | -27.82838 | 4959 ft | 124 kts | 285° |
| 2026-04-26 14:05 | 38.60207 | -27.83839 | 4961 ft | 123 kts | 284° |
| 2026-04-26 14:05 | 38.60560 | -27.84838 | 4963 ft | 123 kts | 284° |
| 2026-04-26 14:06 | 38.60910 | -27.85831 | 4966 ft | 123 kts | 284° |
| 2026-04-26 14:06 | 38.61121 | -27.86842 | 4966 ft | 112 kts | 256° |
| 2026-04-26 14:06 | 38.61005 | -27.87816 | 4966 ft | 111 kts | 251° |
| 2026-04-26 14:06 | 38.60888 | -27.88798 | 4965 ft | 114 kts | 256° |
| 2026-04-26 14:07 | 38.60858 | -27.89799 | 4958 ft | 113 kts | 258° |
| 2026-04-26 14:07 | 38.60822 | -27.90742 | 4950 ft | 95 kts | 253° |
| 2026-04-26 14:07 | 38.60756 | -27.91468 | 4974 ft | 82 kts | 248° |
| 2026-04-26 14:07 | 38.60692 | -27.92210 | 4963 ft | 80 kts | 246° |
| 2026-04-26 14:08 | 38.60625 | -27.92918 | 4896 ft | 76 kts | 233° |
| 2026-04-26 14:08 | 38.60588 | -27.93481 | 4644 ft | 56 kts | 219° |
| 2026-04-26 14:08 | 38.60517 | -27.94054 | 4683 ft | 69 kts | 246° |
| 2026-04-26 14:08 | 38.60450 | -27.94670 | 4852 ft | 70 kts | 246° |
| 2026-04-26 14:09 | 38.60365 | -27.95305 | 4967 ft | 79 kts | 245° |
| 2026-04-26 14:09 | 38.60222 | -27.96089 | 4979 ft | 101 kts | 245° |
| 2026-04-26 14:09 | 38.60075 | -27.97026 | 4972 ft | 119 kts | 259° |
| 2026-04-26 14:09 | 38.60041 | -27.98117 | 4977 ft | 125 kts | 256° |
| 2026-04-26 14:10 | 38.59965 | -27.99247 | 4968 ft | 130 kts | 256° |
| 2026-04-26 14:10 | 38.59868 | -28.00403 | 4964 ft | 130 kts | 255° |
| 2026-04-26 14:10 | 38.59767 | -28.01530 | 4965 ft | 126 kts | 254° |
| 2026-04-26 14:10 | 38.59656 | -28.02624 | 4961 ft | 123 kts | 254° |
| 2026-04-26 14:11 | 38.59439 | -28.04747 | 4952 ft | 119 kts | 254° |
| 2026-04-26 14:11 | 38.59333 | -28.05775 | 4955 ft | 118 kts | 254° |
| 2026-04-26 14:11 | 38.59226 | -28.06814 | 4956 ft | 117 kts | 253° |
| 2026-04-26 14:12 | 38.59121 | -28.07850 | 4951 ft | 118 kts | 253° |
| 2026-04-26 14:12 | 38.59016 | -28.08887 | 4956 ft | 118 kts | 253° |
| 2026-04-26 14:12 | 38.58909 | -28.09927 | 4955 ft | 118 kts | 254° |
| 2026-04-26 14:12 | 38.58805 | -28.10969 | 4952 ft | 118 kts | 254° |
| 2026-04-26 14:13 | 38.58587 | -28.13124 | 4752 ft | 128 kts | 255° |
| 2026-04-26 14:13 | 38.58469 | -28.14267 | 4579 ft | 131 kts | 255° |
| 2026-04-26 14:13 | 38.58349 | -28.15433 | 4403 ft | 133 kts | 256° |
| 2026-04-26 14:14 | 38.58232 | -28.16612 | 4219 ft | 133 kts | 255° |
| 2026-04-26 14:14 | 38.58117 | -28.17756 | 4044 ft | 127 kts | 255° |
| 2026-04-26 14:14 | 38.58008 | -28.18843 | 3880 ft | 123 kts | 255° |
| 2026-04-26 14:14 | 38.57900 | -28.19920 | 3715 ft | 117 kts | 255° |
| 2026-04-26 14:15 | 38.57798 | -28.20892 | 3568 ft | 108 kts | 253° |
| 2026-04-26 14:15 | 38.57698 | -28.21862 | 3425 ft | 112 kts | 253° |
| 2026-04-26 14:15 | 38.57596 | -28.22854 | 3271 ft | 113 kts | 254° |
| 2026-04-26 14:15 | 38.57494 | -28.23856 | 3124 ft | 113 kts | 255° |
| 2026-04-26 14:16 | 38.57393 | -28.24849 | 2969 ft | 112 kts | 255° |
| 2026-04-26 14:16 | 38.57292 | -28.25841 | 2819 ft | 114 kts | 254° |
| 2026-04-26 14:16 | 38.57191 | -28.26844 | 2663 ft | 108 kts | 255° |
| 2026-04-26 14:16 | 38.57100 | -28.27766 | 2524 ft | 106 kts | 253° |
| 2026-04-26 14:17 | 38.56998 | -28.28740 | 2378 ft | 113 kts | 254° |
| 2026-04-26 14:17 | 38.56930 | -28.29404 | 2279 ft | 114 kts | 255° |
| 2026-04-26 14:17 | 38.56802 | -28.30708 | 2073 ft | 106 kts | 255° |
| 2026-04-26 14:17 | 38.56710 | -28.31607 | 1938 ft | 98 kts | 252° |
| 2026-04-26 14:18 | 38.56627 | -28.32445 | 1807 ft | 91 kts | 252° |
| 2026-04-26 14:18 | 38.56571 | -28.32968 | 1727 ft | 88 kts | 251° |
| 2026-04-26 14:18 | 38.56496 | -28.33723 | 1613 ft | 85 kts | 253° |
| 2026-04-26 14:18 | 38.56419 | -28.34469 | 1500 ft | 87 kts | 254° |
| 2026-04-26 14:19 | 38.56340 | -28.35235 | 1377 ft | 85 kts | 255° |
| 2026-04-26 14:19 | 38.56269 | -28.35948 | 1268 ft | 80 kts | 251° |
| 2026-04-26 14:19 | 38.56196 | -28.36650 | 1161 ft | 79 kts | 256° |
| 2026-04-26 14:19 | 38.56117 | -28.37392 | 1052 ft | 89 kts | 256° |
| 2026-04-26 14:20 | 38.56038 | -28.38169 | 932 ft | 85 kts | 259° |
| 2026-04-26 14:20 | 38.55966 | -28.38890 | 818 ft | 82 kts | 259° |
| 2026-04-26 14:20 | 38.55889 | -28.39631 | 708 ft | 87 kts | 258° |
| 2026-04-26 14:20 | 38.55814 | -28.40384 | 595 ft | 82 kts | 259° |
| 2026-04-26 14:21 | 38.55738 | -28.41121 | 478 ft | 84 kts | 258° |
| 2026-04-26 14:21 | 38.55661 | -28.41867 | 367 ft | 84 kts | 260° |
| 2026-04-26 14:21 | 38.55588 | -28.42590 | 261 ft | 82 kts | 257° |
| 2026-04-26 14:21 | 38.55515 | -28.43294 | 163 ft | 79 kts | 259° |
| 2026-04-26 14:22 | 38.55462 | -28.43939 | 116 ft | 63 kts | 258° |
| 2026-04-26 14:22 | 38.55416 | -28.44285 | 113 ft | 12 kts | 264° |
| 2026-04-26 14:22 | 38.55395 | -28.44333 | 112 ft | 5 kts | 180° |
| 2026-04-26 14:22 | 38.55370 | -28.44314 | 113 ft | 3 kts | 140° |
| 2026-04-26 14:23 | 38.55351 | -28.44286 | 113 ft | 5 kts | 136° |
| 2026-04-26 14:23 | 38.55315 | -28.44253 | 113 ft | 9 kts | 104° |
| 2026-04-26 14:23 | 38.55318 | -28.44167 | 114 ft | 9 kts | 90° |
| 2026-04-26 14:23 | 38.55295 | -28.44113 | 113 ft | 8 kts | 198° |
| 2026-04-26 14:24 | 38.55281 | -28.44108 | 113 ft | 6 kts | 133° |